Time;durP1;ratioP1;P1;durP2;ratioP2;P2;SDS_P1;SDS_P2;PMS_P1;PMS_P2;Temp;Humidity;BMP_temperature;BMP_pressure;BME280_temperature;BME280_humidity;BME280_pressure;Samples;Min_cycle;Max_cycle;Signal;HPM_P1;HPM_P2
2022/08/25 00:00:21;;;;;;;23.90;6.45;;;;;;;;;;10341567;28;20068;-67
2022/08/25 00:05:19;;;;;;;17.08;6.05;;;;;;;;;;10341278;28;20488;-68
2022/08/25 00:10:19;;;;;;;17.05;6.13;;;;;;;;;;10341010;28;20058;-68
2022/08/25 00:15:17;;;;;;;13.85;6.60;;;;;;;;;;10341430;28;20040;-68
2022/08/25 00:20:17;;;;;;;17.55;6.40;;;;;;;;;;10340378;28;20071;-68
2022/08/25 00:25:15;;;;;;;19.77;7.07;;;;;;;;;;10342030;28;20068;-69
2022/08/25 00:30:15;;;;;;;25.52;7.38;;;;;;;;;;10342708;28;20036;-68
2022/08/25 00:35:13;;;;;;;15.55;6.70;;;;;;;;;;10349624;28;20048;-68
2022/08/25 00:40:16;;;;;;;11.73;6.88;;;;;;;;;;10348051;28;20067;-68
2022/08/25 00:45:14;;;;;;;22.88;8.30;;;;;;;;;;10350140;28;20102;-69
2022/08/25 00:50:12;;;;;;;15.15;6.93;;;;;;;;;;10348585;28;20044;-67
2022/08/25 00:55:13;;;;;;;23.38;8.95;;;;;;;;;;10347829;28;20044;-68
2022/08/25 01:00:15;;;;;;;18.73;5.75;;;;;;;;;;10351666;28;20063;-68
2022/08/25 01:05:14;;;;;;;17.27;6.60;;;;;;;;;;10348429;28;20083;-68
2022/08/25 01:10:13;;;;;;;19.58;6.03;;;;;;;;;;10347929;28;20060;-68
2022/08/25 01:15:13;;;;;;;20.95;7.13;;;;;;;;;;10347381;28;20036;-68
2022/08/25 01:20:13;;;;;;;32.75;7.47;;;;;;;;;;10346848;28;20052;-67
2022/08/25 01:25:20;;;;;;;33.78;7.25;;;;;;;;;;10347117;28;20493;-68
2022/08/25 01:30:18;;;;;;;32.03;6.70;;;;;;;;;;10346812;28;20063;-68
2022/08/25 01:35:17;;;;;;;26.95;7.20;;;;;;;;;;10348348;28;20044;-68
2022/08/25 01:40:17;;;;;;;20.85;7.07;;;;;;;;;;10345198;28;20064;-68
2022/08/25 01:45:15;;;;;;;20.92;6.35;;;;;;;;;;10345992;28;20482;-68
2022/08/25 01:50:13;;;;;;;18.92;5.72;;;;;;;;;;10348538;28;20083;-68
2022/08/25 01:55:12;;;;;;;26.42;7.53;;;;;;;;;;10345605;28;20063;-67
2022/08/25 02:00:13;;;;;;;22.90;6.68;;;;;;;;;;10345630;28;20083;-67
2022/08/25 02:05:12;;;;;;;32.67;7.45;;;;;;;;;;10326785;28;20076;-67
2022/08/25 02:10:12;;;;;;;19.25;6.97;;;;;;;;;;10345330;28;20071;-67
2022/08/25 02:15:13;;;;;;;24.00;6.55;;;;;;;;;;10345139;28;20040;-67
2022/08/25 02:20:11;;;;;;;20.20;6.68;;;;;;;;;;10345067;28;20079;-66
2022/08/25 02:25:10;;;;;;;22.77;6.65;;;;;;;;;;10345230;28;20524;-66
2022/08/25 02:30:09;;;;;;;17.05;6.80;;;;;;;;;;10344945;28;20071;-67
2022/08/25 02:35:09;;;;;;;22.65;8.02;;;;;;;;;;10345789;28;20036;-67
2022/08/25 02:40:08;;;;;;;16.88;7.28;;;;;;;;;;10343377;28;20094;-65
2022/08/25 02:45:07;;;;;;;15.48;6.75;;;;;;;;;;10345223;28;20075;-66
2022/08/25 02:50:06;;;;;;;16.48;7.32;;;;;;;;;;10344290;28;20547;-68
2022/08/25 02:55:07;;;;;;;23.83;7.75;;;;;;;;;;10344056;28;20040;-67
2022/08/25 03:00:06;;;;;;;23.67;6.55;;;;;;;;;;10344581;28;20036;-67
2022/08/25 03:05:06;;;;;;;22.23;8.05;;;;;;;;;;10343896;28;20078;-67
2022/08/25 03:10:08;;;;;;;27.35;8.52;;;;;;;;;;10343435;28;20082;-67
2022/08/25 03:15:07;;;;;;;16.35;8.18;;;;;;;;;;10343233;28;20040;-66
2022/08/25 03:20:10;;;;;;;19.60;8.15;;;;;;;;;;10342428;28;20036;-68
2022/08/25 03:30:26;;;;;;;24.45;6.70;;;;;;;;;;10341387;28;20043;-66
2022/08/25 03:35:24;;;;;;;17.60;7.38;;;;;;;;;;10344666;28;20464;-67
2022/08/25 03:40:25;;;;;;;15.70;6.82;;;;;;;;;;10342991;28;20044;-67
2022/08/25 03:45:24;;;;;;;18.17;7.65;;;;;;;;;;10344401;28;20137;-68
2022/08/25 03:50:23;;;;;;;21.63;7.35;;;;;;;;;;10340500;28;20095;-67
2022/08/25 03:55:21;;;;;;;21.38;7.05;;;;;;;;;;10341427;28;20040;-67
2022/08/25 04:00:22;;;;;;;28.13;7.55;;;;;;;;;;10342148;28;20089;-67
2022/08/25 04:05:20;;;;;;;22.95;6.85;;;;;;;;;;10346767;28;20200;-68
2022/08/25 04:10:19;;;;;;;21.60;7.60;;;;;;;;;;10361849;28;20048;-66
2022/08/25 04:15:17;;;;;;;33.88;22.88;;;;;;;;;;10361010;28;20139;-67
2022/08/25 04:20:17;;;;;;;40.20;23.42;;;;;;;;;;10347547;28;20063;-67
2022/08/25 04:25:15;;;;;;;30.05;9.13;;;;;;;;;;10348152;28;20070;-67
2022/08/25 04:30:17;;;;;;;38.03;12.77;;;;;;;;;;10343749;28;20110;-67
2022/08/25 04:35:16;;;;;;;19.45;8.52;;;;;;;;;;10358256;28;20068;-67
2022/08/25 04:40:15;;;;;;;22.98;8.32;;;;;;;;;;10346164;28;20047;-66
2022/08/25 04:45:14;;;;;;;26.30;8.55;;;;;;;;;;10353347;28;20551;-67
2022/08/25 04:50:12;;;;;;;20.33;7.30;;;;;;;;;;10350770;28;20083;-67
2022/08/25 04:55:12;;;;;;;21.00;7.32;;;;;;;;;;10359198;28;20501;-66
2022/08/25 05:00:11;;;;;;;25.40;7.38;;;;;;;;;;10355096;28;20115;-67
2022/08/25 05:05:09;;;;;;;25.98;6.93;;;;;;;;;;10353316;28;20075;-66
2022/08/25 05:10:08;;;;;;;26.90;7.97;;;;;;;;;;10345062;28;20523;-66
2022/08/25 05:20:20;;;;;;;23.10;7.47;;;;;;;;;;10344369;28;20529;-66
2022/08/25 05:25:19;;;;;;;25.42;8.32;;;;;;;;;;10341628;28;20079;-68
2022/08/25 05:30:19;;;;;;;25.75;8.27;;;;;;;;;;10344682;28;20072;-67
2022/08/25 05:35:18;;;;;;;20.65;7.50;;;;;;;;;;10344287;28;20072;-67
2022/08/25 05:40:16;;;;;;;24.58;7.72;;;;;;;;;;10349325;28;20071;-66
2022/08/25 05:45:15;;;;;;;30.73;7.28;;;;;;;;;;10345454;28;20040;-66
2022/08/25 05:50:19;;;;;;;26.63;7.82;;;;;;;;;;10345138;28;20103;-67
2022/08/25 05:55:17;;;;;;;27.13;10.75;;;;;;;;;;10348592;28;20094;-66
2022/08/25 06:00:17;;;;;;;31.45;7.53;;;;;;;;;;10343725;28;20067;-67
2022/08/25 06:05:17;;;;;;;43.05;6.90;;;;;;;;;;10342671;28;20501;-67
2022/08/25 06:10:18;;;;;;;28.10;8.13;;;;;;;;;;10347426;28;20060;-67
2022/08/25 06:15:18;;;;;;;42.13;7.65;;;;;;;;;;10348397;28;20068;-67
2022/08/25 06:20:17;;;;;;;23.30;6.95;;;;;;;;;;10346213;28;20070;-67
2022/08/25 06:25:21;;;;;;;25.45;6.30;;;;;;;;;;10348191;28;20067;-67
2022/08/25 06:30:21;;;;;;;28.13;6.60;;;;;;;;;;10348164;28;20075;-67
2022/08/25 06:35:26;;;;;;;18.45;5.40;;;;;;;;;;10342546;28;20071;-67
2022/08/25 06:40:26;;;;;;;21.70;6.47;;;;;;;;;;10347887;28;20059;-67
2022/08/25 06:45:25;;;;;;;42.75;7.53;;;;;;;;;;10341131;28;20073;-66
2022/08/25 06:50:23;;;;;;;29.10;6.60;;;;;;;;;;10335201;28;20087;-66
2022/08/25 06:55:21;;;;;;;24.13;6.22;;;;;;;;;;10337555;28;20072;-67
2022/08/25 07:00:21;;;;;;;23.52;6.65;;;;;;;;;;10341313;28;20519;-66
2022/08/25 07:05:28;;;;;;;22.70;11.48;;;;;;;;;;10342409;28;20086;-67
2022/08/25 07:10:42;;;;;;;25.48;7.00;;;;;;;;;;10340528;28;20083;-67
2022/08/25 07:15:46;;;;;;;30.03;6.60;;;;;;;;;;10340733;28;20056;-67
2022/08/25 07:20:44;;;;;;;27.35;6.30;;;;;;;;;;10337576;28;20064;-66
2022/08/25 07:25:43;;;;;;;17.63;5.93;;;;;;;;;;10338222;28;20076;-66
2022/08/25 07:30:41;;;;;;;24.90;5.45;;;;;;;;;;10340522;28;20064;-66
2022/08/25 07:35:41;;;;;;;25.67;6.70;;;;;;;;;;10341513;28;20331;-66
2022/08/25 07:40:40;;;;;;;24.00;6.07;;;;;;;;;;10339751;28;20493;-67
2022/08/25 07:45:40;;;;;;;14.80;5.05;;;;;;;;;;10341953;28;20072;-65
2022/08/25 07:50:48;;;;;;;28.30;5.40;;;;;;;;;;10341108;28;20076;-67
2022/08/25 07:55:46;;;;;;;33.13;8.48;;;;;;;;;;10346488;28;20066;-68
2022/08/25 08:00:47;;;;;;;19.20;6.15;;;;;;;;;;10354042;28;20062;-66
2022/08/25 08:05:49;;;;;;;29.27;6.63;;;;;;;;;;10343158;28;20473;-67
2022/08/25 08:10:47;;;;;;;20.80;4.78;;;;;;;;;;10339498;28;20068;-65
2022/08/25 08:16:02;;;;;;;19.13;5.80;;;;;;;;;;10339539;28;20540;-66
2022/08/25 08:21:02;;;;;;;16.40;5.65;;;;;;;;;;10338448;28;20158;-66
2022/08/25 08:26:00;;;;;;;19.83;6.75;;;;;;;;;;10340628;28;20154;-66
2022/08/25 08:31:01;;;;;;;21.90;5.63;;;;;;;;;;10337840;28;20068;-66
2022/08/25 08:36:01;;;;;;;21.08;6.13;;;;;;;;;;10342313;28;20072;-67
2022/08/25 08:46:38;;;;;;;16.48;5.40;;;;;;;;;;10354679;28;20532;-65
2022/08/25 08:51:43;;;;;;;17.65;4.82;;;;;;;;;;10340039;28;20067;-67
2022/08/25 08:56:47;;;;;;;15.75;4.97;;;;;;;;;;10339442;28;20090;-66
2022/08/25 09:01:47;;;;;;;12.05;4.70;;;;;;;;;;10340799;28;20068;-67
2022/08/25 09:06:51;;;;;;;12.73;4.78;;;;;;;;;;10346740;28;20083;-66
2022/08/25 09:11:54;;;;;;;15.50;5.25;;;;;;;;;;10346645;28;20068;-67
2022/08/25 09:16:55;;;;;;;20.87;4.17;;;;;;;;;;10347642;28;20044;-66
2022/08/25 09:21:57;;;;;;;13.80;4.80;;;;;;;;;;10346058;28;20100;-66
2022/08/25 09:27:04;;;;;;;21.95;4.68;;;;;;;;;;10346362;28;20071;-67
2022/08/25 09:32:05;;;;;;;20.50;4.60;;;;;;;;;;10346893;28;20614;-66
2022/08/25 09:37:03;;;;;;;23.33;5.30;;;;;;;;;;10345480;28;20068;-66
2022/08/25 09:42:03;;;;;;;20.33;4.57;;;;;;;;;;10355731;28;20067;-66
2022/08/25 09:47:03;;;;;;;11.48;4.18;;;;;;;;;;10340002;28;20051;-67
2022/08/25 09:52:17;;;;;;;18.35;4.50;;;;;;;;;;10358460;28;20075;-66
2022/08/25 09:57:29;;;;;;;10.93;4.93;;;;;;;;;;10347055;28;20064;-66
2022/08/25 10:02:28;;;;;;;13.02;4.57;;;;;;;;;;10344545;28;20072;-66
2022/08/25 10:07:28;;;;;;;16.63;4.57;;;;;;;;;;10345648;28;20091;-66
2022/08/25 10:12:34;;;;;;;18.50;4.60;;;;;;;;;;10344026;28;20068;-66
2022/08/25 10:17:33;;;;;;;16.02;5.18;;;;;;;;;;10337278;28;20076;-66
2022/08/25 10:22:31;;;;;;;17.55;5.38;;;;;;;;;;10336911;28;20052;-67
2022/08/25 10:27:36;;;;;;;20.00;5.03;;;;;;;;;;10336670;28;20079;-67
2022/08/25 10:32:50;;;;;;;12.68;5.72;;;;;;;;;;10337533;28;20095;-65
2022/08/25 10:38:00;;;;;;;10.63;5.10;;;;;;;;;;10342581;28;20091;-65
2022/08/25 10:43:05;;;;;;;14.40;4.85;;;;;;;;;;10342410;28;20090;-66
2022/08/25 10:48:23;;;;;;;11.98;4.78;;;;;;;;;;10342277;28;20102;-66
2022/08/25 10:53:25;;;;;;;19.52;5.43;;;;;;;;;;10339259;28;20158;-65
2022/08/25 10:58:32;;;;;;;21.92;4.88;;;;;;;;;;10342033;28;20075;-65
2022/08/25 11:03:36;;;;;;;15.82;4.57;;;;;;;;;;10342004;28;20078;-65
2022/08/25 11:08:38;;;;;;;13.98;4.53;;;;;;;;;;10341211;28;20125;-66
2022/08/25 11:13:42;;;;;;;15.18;5.03;;;;;;;;;;10343112;28;20437;-65
2022/08/25 11:18:45;;;;;;;13.73;4.80;;;;;;;;;;10326582;28;20204;-65
2022/08/25 11:23:46;;;;;;;18.92;5.13;;;;;;;;;;10341596;28;20071;-66
2022/08/25 11:28:52;;;;;;;19.27;6.55;;;;;;;;;;10341960;28;20075;-64
2022/08/25 11:33:51;;;;;;;19.13;5.32;;;;;;;;;;10343240;28;20048;-65
2022/08/25 11:38:53;;;;;;;29.33;5.28;;;;;;;;;;10342600;28;20079;-66
2022/08/25 11:44:05;;;;;;;24.20;5.63;;;;;;;;;;10340614;28;20072;-65
2022/08/25 11:49:12;;;;;;;20.17;5.68;;;;;;;;;;10341415;28;20099;-66
2022/08/25 11:54:16;;;;;;;16.75;4.47;;;;;;;;;;10340367;28;20072;-66
2022/08/25 11:59:37;;;;;;;15.70;4.75;;;;;;;;;;10348818;28;20474;-66
2022/08/25 12:04:39;;;;;;;15.82;5.22;;;;;;;;;;10355090;28;20067;-66
2022/08/25 12:09:57;;;;;;;20.90;4.57;;;;;;;;;;10335044;28;20122;-66
2022/08/25 12:15:13;;;;;;;27.70;5.53;;;;;;;;;;10340349;28;20083;-66
2022/08/25 12:20:11;;;;;;;22.75;8.77;;;;;;;;;;10339582;28;20067;-64
2022/08/25 12:25:15;;;;;;;20.27;8.55;;;;;;;;;;10342068;28;20067;-66
2022/08/25 12:30:18;;;;;;;15.52;4.18;;;;;;;;;;10348584;28;20090;-66
2022/08/25 12:35:29;;;;;;;19.00;5.28;;;;;;;;;;10329908;28;20044;-66
2022/08/25 12:40:30;;;;;;;23.25;6.88;;;;;;;;;;10348768;28;20088;-66
2022/08/25 12:45:36;;;;;;;32.47;6.88;;;;;;;;;;10347549;28;20533;-66
2022/08/25 12:50:38;;;;;;;26.85;4.82;;;;;;;;;;10347172;28;20591;-66
2022/08/25 12:55:38;;;;;;;28.48;5.72;;;;;;;;;;10348613;28;20048;-66
2022/08/25 13:00:48;;;;;;;20.27;4.63;;;;;;;;;;10351388;28;20070;-66
2022/08/25 13:05:58;;;;;;;17.85;3.85;;;;;;;;;;10359900;28;20074;-66
2022/08/25 13:10:58;;;;;;;21.75;5.35;;;;;;;;;;10360788;28;20485;-66
2022/08/25 13:16:00;;;;;;;23.20;5.75;;;;;;;;;;10354016;28;20063;-66
2022/08/25 13:21:14;;;;;;;15.73;5.10;;;;;;;;;;10346100;28;20076;-66
2022/08/25 13:26:14;;;;;;;21.17;5.63;;;;;;;;;;10347433;28;20521;-66
2022/08/25 13:31:17;;;;;;;24.42;5.05;;;;;;;;;;10346120;28;20401;-67
2022/08/25 13:41:33;;;;;;;30.20;6.22;;;;;;;;;;10344611;28;20293;-66
2022/08/25 13:46:36;;;;;;;23.45;4.60;;;;;;;;;;10345600;28;20076;-67
2022/08/25 13:51:35;;;;;;;23.77;5.20;;;;;;;;;;10346783;28;20079;-67
2022/08/25 13:56:35;;;;;;;19.92;4.40;;;;;;;;;;10346347;28;20560;-67
2022/08/25 14:01:45;;;;;;;21.75;5.95;;;;;;;;;;10345280;28;20542;-67
2022/08/25 14:06:46;;;;;;;29.27;5.53;;;;;;;;;;10342793;28;20090;-67
2022/08/25 14:11:46;;;;;;;22.40;6.88;;;;;;;;;;10343716;28;20075;-65
2022/08/25 14:16:48;;;;;;;35.90;5.85;;;;;;;;;;10341616;28;20048;-65
2022/08/25 14:21:52;;;;;;;27.02;7.13;;;;;;;;;;10342077;28;20045;-68
2022/08/25 14:26:54;;;;;;;34.47;6.45;;;;;;;;;;10345581;28;20076;-66
2022/08/25 14:31:55;;;;;;;29.88;6.28;;;;;;;;;;10343900;28;20070;-66
2022/08/25 14:36:53;;;;;;;42.63;6.53;;;;;;;;;;10343820;28;20083;-66
2022/08/25 14:41:52;;;;;;;35.17;7.32;;;;;;;;;;10342986;28;20091;-66
2022/08/25 14:46:54;;;;;;;39.25;6.55;;;;;;;;;;10341972;28;20057;-66
2022/08/25 14:51:54;;;;;;;32.60;6.38;;;;;;;;;;10342847;28;20068;-67
2022/08/25 14:56:53;;;;;;;29.30;7.40;;;;;;;;;;10343828;28;20036;-66
2022/08/25 15:01:52;;;;;;;32.80;5.97;;;;;;;;;;10342379;28;20072;-66
2022/08/25 15:06:53;;;;;;;29.00;5.95;;;;;;;;;;10342404;28;20072;-66
2022/08/25 15:11:55;;;;;;;37.30;7.03;;;;;;;;;;10343048;28;20068;-66
2022/08/25 15:16:54;;;;;;;34.67;5.43;;;;;;;;;;10342999;28;20072;-66
2022/08/25 15:21:53;;;;;;;39.85;5.97;;;;;;;;;;10341885;28;20079;-66
2022/08/25 15:26:59;;;;;;;29.73;5.88;;;;;;;;;;10341609;28;20048;-67
2022/08/25 15:31:59;;;;;;;40.97;7.00;;;;;;;;;;10342850;28;20135;-67
2022/08/25 15:36:58;;;;;;;31.00;6.65;;;;;;;;;;10341935;28;20068;-67
2022/08/25 15:41:58;;;;;;;33.55;5.75;;;;;;;;;;10341570;28;20072;-67
2022/08/25 15:46:57;;;;;;;29.63;6.07;;;;;;;;;;10342943;28;20087;-66
2022/08/25 15:51:56;;;;;;;28.63;6.63;;;;;;;;;;10342469;28;20067;-66
2022/08/25 15:56:55;;;;;;;37.17;6.13;;;;;;;;;;10339853;28;20076;-66
2022/08/25 16:01:55;;;;;;;22.25;5.88;;;;;;;;;;10343766;28;20502;-66
2022/08/25 16:06:54;;;;;;;33.17;7.22;;;;;;;;;;10330913;28;20055;-67
2022/08/25 16:11:55;;;;;;;41.42;7.45;;;;;;;;;;10349206;28;20076;-66
2022/08/25 16:17:01;;;;;;;31.33;8.70;;;;;;;;;;10348959;28;20057;-65
2022/08/25 16:22:00;;;;;;;31.17;6.90;;;;;;;;;;10349135;28;20461;-65
2022/08/25 16:27:03;;;;;;;27.95;7.97;;;;;;;;;;10349076;28;20437;-66
2022/08/25 16:32:11;;;;;;;41.05;9.00;;;;;;;;;;10358465;28;20066;-66
2022/08/25 16:37:11;;;;;;;39.03;6.32;;;;;;;;;;10349764;28;20500;-68
2022/08/25 16:42:10;;;;;;;26.02;6.65;;;;;;;;;;10359665;28;20063;-68
2022/08/25 16:47:11;;;;;;;33.30;9.77;;;;;;;;;;10361458;28;20095;-68
2022/08/25 16:57:25;;;;;;;37.63;8.77;;;;;;;;;;10341001;28;20044;-69
2022/08/25 17:02:25;;;;;;;32.33;7.50;;;;;;;;;;10347220;28;20080;-69
2022/08/25 17:07:24;;;;;;;37.88;7.35;;;;;;;;;;10347465;28;20102;-69
2022/08/25 17:12:23;;;;;;;25.70;6.65;;;;;;;;;;10345937;28;20075;-69
2022/08/25 17:17:26;;;;;;;45.08;8.57;;;;;;;;;;10348101;28;20493;-69
2022/08/25 17:22:28;;;;;;;38.75;9.13;;;;;;;;;;10346883;28;20075;-69
2022/08/25 17:27:31;;;;;;;35.67;8.33;;;;;;;;;;10341055;28;20048;-70
2022/08/25 17:32:31;;;;;;;38.78;8.98;;;;;;;;;;10348109;28;20079;-69
2022/08/25 17:37:34;;;;;;;47.35;12.02;;;;;;;;;;10339996;28;20084;-68
2022/08/25 17:42:34;;;;;;;44.13;12.48;;;;;;;;;;10340336;28;20086;-69
2022/08/25 17:47:34;;;;;;;45.72;14.88;;;;;;;;;;10339823;28;20091;-68
2022/08/25 17:52:32;;;;;;;47.47;17.23;;;;;;;;;;10352752;28;20075;-68
2022/08/25 17:57:31;;;;;;;36.90;11.82;;;;;;;;;;10358538;28;20032;-69
2022/08/25 18:02:30;;;;;;;38.72;10.38;;;;;;;;;;10360049;28;20032;-69
2022/08/25 18:07:30;;;;;;;37.47;9.80;;;;;;;;;;10346759;28;20056;-69
2022/08/25 18:12:28;;;;;;;34.10;9.73;;;;;;;;;;10345418;28;20075;-68
2022/08/25 18:17:27;;;;;;;34.40;9.27;;;;;;;;;;10339702;28;20079;-68
2022/08/25 18:22:26;;;;;;;39.20;9.77;;;;;;;;;;10346153;28;20068;-70
2022/08/25 18:27:27;;;;;;;46.95;9.15;;;;;;;;;;10345244;28;20044;-68
2022/08/25 18:32:29;;;;;;;38.53;8.00;;;;;;;;;;10322096;28;20142;-68
2022/08/25 18:48:41;;;;;;;46.40;8.65;;;;;;;;;;10290688;28;20474;-68
2022/08/25 18:53:39;;;;;;;31.52;7.43;;;;;;;;;;10299149;28;20076;-66
2022/08/25 18:58:48;;;;;;;781.10;715.83;;;;;;;;;;10300130;28;20076;-68
2022/08/25 19:03:49;;;;;;;37.60;13.85;;;;;;;;;;10299635;28;20087;-68
2022/08/25 19:08:48;;;;;;;39.40;7.25;;;;;;;;;;10300430;28;20072;-69
2022/08/25 19:13:49;;;;;;;39.65;8.38;;;;;;;;;;10299358;28;20510;-69
2022/08/25 19:18:49;;;;;;;36.22;9.05;;;;;;;;;;10298548;28;20099;-68
2022/08/25 19:23:50;;;;;;;42.53;7.57;;;;;;;;;;10300467;28;20080;-68
2022/08/25 19:28:50;;;;;;;37.10;8.20;;;;;;;;;;10296569;28;20068;-68
2022/08/25 19:33:51;;;;;;;27.13;7.57;;;;;;;;;;10301230;28;20114;-68
2022/08/25 19:38:51;;;;;;;43.58;10.00;;;;;;;;;;10296534;28;20068;-67
2022/08/25 19:43:50;;;;;;;33.17;6.72;;;;;;;;;;10296432;28;20469;-68
2022/08/25 19:48:55;;;;;;;29.40;8.25;;;;;;;;;;10300296;28;20079;-67
2022/08/25 19:53:54;;;;;;;25.83;6.72;;;;;;;;;;10281123;28;20072;-68
2022/08/25 19:58:56;;;;;;;28.48;6.82;;;;;;;;;;10300511;28;20083;-68
2022/08/25 20:03:56;;;;;;;31.17;6.57;;;;;;;;;;10299902;28;20045;-68
2022/08/25 20:08:54;;;;;;;26.10;7.25;;;;;;;;;;10300259;28;20083;-69
2022/08/25 20:14:00;;;;;;;21.80;5.55;;;;;;;;;;10300237;28;20080;-68
2022/08/25 20:19:02;;;;;;;30.17;7.07;;;;;;;;;;10299959;28;20068;-68
2022/08/25 20:29:16;;;;;;;24.05;5.43;;;;;;;;;;10293763;28;20072;-69
2022/08/25 20:34:16;;;;;;;25.42;5.05;;;;;;;;;;10291658;28;20107;-69
2022/08/25 20:39:14;;;;;;;31.45;6.22;;;;;;;;;;10313709;28;20063;-70
2022/08/25 20:44:13;;;;;;;25.35;6.07;;;;;;;;;;10312205;28;20543;-69
2022/08/25 20:49:11;;;;;;;29.25;6.28;;;;;;;;;;10315787;28;20079;-69
2022/08/25 20:54:14;;;;;;;30.92;7.72;;;;;;;;;;10300960;28;20080;-68
2022/08/25 20:59:12;;;;;;;27.52;4.65;;;;;;;;;;10306553;28;20584;-67
2022/08/25 21:04:13;;;;;;;24.17;5.43;;;;;;;;;;10300260;28;20072;-68
2022/08/25 21:09:14;;;;;;;22.92;6.22;;;;;;;;;;10304429;28;20072;-68
2022/08/25 21:14:14;;;;;;;20.02;6.93;;;;;;;;;;10305305;28;20080;-68
2022/08/25 21:19:12;;;;;;;24.67;5.93;;;;;;;;;;10305527;28;20560;-69
2022/08/25 21:24:11;;;;;;;24.83;6.68;;;;;;;;;;10305110;28;20076;-68
2022/08/25 21:29:11;;;;;;;27.35;5.22;;;;;;;;;;10304700;28;20064;-68
2022/08/25 21:34:12;;;;;;;25.52;7.35;;;;;;;;;;10304460;28;20072;-68
2022/08/25 21:39:11;;;;;;;26.00;5.13;;;;;;;;;;10303936;28;20091;-69
2022/08/25 21:44:11;;;;;;;24.45;5.93;;;;;;;;;;10304293;28;20076;-68
2022/08/25 21:49:09;;;;;;;19.20;5.15;;;;;;;;;;10303463;28;20080;-69
2022/08/25 21:54:09;;;;;;;22.50;4.95;;;;;;;;;;10304918;28;20078;-69
2022/08/25 21:59:07;;;;;;;24.00;5.40;;;;;;;;;;10303440;28;20135;-67
2022/08/25 22:04:07;;;;;;;24.48;6.32;;;;;;;;;;10315264;28;20044;-69
2022/08/25 22:09:07;;;;;;;24.85;5.88;;;;;;;;;;10311353;28;20067;-69
2022/08/25 22:14:06;;;;;;;18.77;5.40;;;;;;;;;;10317093;28;20450;-67
2022/08/25 22:19:05;;;;;;;19.30;5.78;;;;;;;;;;10303437;28;20068;-69
2022/08/25 22:24:05;;;;;;;27.30;5.13;;;;;;;;;;10302308;28;20048;-69
2022/08/25 22:29:04;;;;;;;18.17;5.25;;;;;;;;;;10302628;28;20048;-69
2022/08/25 22:34:04;;;;;;;17.48;4.35;;;;;;;;;;10303330;28;20071;-69
2022/08/25 22:39:04;;;;;;;18.92;4.28;;;;;;;;;;10301874;28;20516;-69
2022/08/25 22:44:05;;;;;;;22.58;6.30;;;;;;;;;;10301867;28;20072;-69
2022/08/25 22:49:03;;;;;;;17.35;4.05;;;;;;;;;;10301796;28;20049;-68
2022/08/25 22:54:05;;;;;;;24.95;4.95;;;;;;;;;;10301602;28;20075;-68
2022/08/25 22:59:09;;;;;;;15.30;4.00;;;;;;;;;;10301185;28;20074;-69
2022/08/25 23:04:08;;;;;;;21.10;5.32;;;;;;;;;;10301856;28;20045;-68
2022/08/25 23:09:08;;;;;;;16.85;4.43;;;;;;;;;;10301863;28;20044;-69
2022/08/25 23:14:09;;;;;;;14.23;4.07;;;;;;;;;;10301931;28;20079;-69
2022/08/25 23:19:08;;;;;;;24.08;4.68;;;;;;;;;;10301983;28;20063;-70
2022/08/25 23:24:07;;;;;;;18.60;5.32;;;;;;;;;;10301671;28;20076;-69
2022/08/25 23:29:09;;;;;;;22.10;3.78;;;;;;;;;;10299101;28;20099;-70
2022/08/25 23:34:16;;;;;;;20.67;4.15;;;;;;;;;;10301043;28;20067;-69
2022/08/25 23:39:14;;;;;;;29.35;5.65;;;;;;;;;;10301494;28;20064;-69
2022/08/25 23:44:14;;;;;;;15.73;4.43;;;;;;;;;;10301478;28;20463;-69
2022/08/25 23:49:15;;;;;;;17.13;4.93;;;;;;;;;;10294058;28;20087;-69
2022/08/25 23:54:16;;;;;;;20.63;5.72;;;;;;;;;;10296049;28;20071;-69
2022/08/25 23:59:16;;;;;;;22.92;6.07;;;;;;;;;;10295805;28;20470;-69
